sensor_id;sensor_type;location;lat;lon;timestamp;P1;durP1;ratioP1;P2;durP2;ratioP2
20154;SDS011;10238;49.556;10.956;2023-03-23T00:01:53;7.65;;;5.72;;
20154;SDS011;10238;49.556;10.956;2023-03-23T00:04:40;13.07;;;8.38;;
20154;SDS011;10238;49.556;10.956;2023-03-23T00:07:29;9.35;;;6.93;;
20154;SDS011;10238;49.556;10.956;2023-03-23T00:10:18;11.38;;;7.63;;
20154;SDS011;10238;49.556;10.956;2023-03-23T00:13:05;9.82;;;8.80;;
20154;SDS011;10238;49.556;10.956;2023-03-23T00:15:52;10.13;;;7.45;;
20154;SDS011;10238;49.556;10.956;2023-03-23T00:18:41;9.52;;;6.88;;
20154;SDS011;10238;49.556;10.956;2023-03-23T00:21:29;10.77;;;7.38;;
20154;SDS011;10238;49.556;10.956;2023-03-23T00:24:21;9.40;;;6.45;;
20154;SDS011;10238;49.556;10.956;2023-03-23T00:27:09;9.27;;;7.18;;
20154;SDS011;10238;49.556;10.956;2023-03-23T00:29:59;7.32;;;6.50;;
20154;SDS011;10238;49.556;10.956;2023-03-23T00:32:45;9.40;;;7.13;;
20154;SDS011;10238;49.556;10.956;2023-03-23T00:35:33;7.90;;;6.25;;
20154;SDS011;10238;49.556;10.956;2023-03-23T00:38:20;9.88;;;6.38;;
20154;SDS011;10238;49.556;10.956;2023-03-23T00:41:08;9.35;;;7.60;;
20154;SDS011;10238;49.556;10.956;2023-03-23T00:43:58;7.03;;;6.18;;
20154;SDS011;10238;49.556;10.956;2023-03-23T00:46:46;8.27;;;7.13;;
20154;SDS011;10238;49.556;10.956;2023-03-23T00:49:35;10.90;;;9.27;;
20154;SDS011;10238;49.556;10.956;2023-03-23T00:52:23;9.73;;;8.77;;
20154;SDS011;10238;49.556;10.956;2023-03-23T00:55:10;7.85;;;5.55;;
20154;SDS011;10238;49.556;10.956;2023-03-23T00:57:56;8.52;;;6.10;;
20154;SDS011;10238;49.556;10.956;2023-03-23T01:00:47;9.82;;;5.68;;
20154;SDS011;10238;49.556;10.956;2023-03-23T01:03:34;10.45;;;6.45;;
20154;SDS011;10238;49.556;10.956;2023-03-23T01:06:21;10.35;;;5.38;;
20154;SDS011;10238;49.556;10.956;2023-03-23T01:09:09;7.03;;;6.20;;
20154;SDS011;10238;49.556;10.956;2023-03-23T01:11:59;7.75;;;5.00;;
20154;SDS011;10238;49.556;10.956;2023-03-23T01:14:45;6.45;;;4.63;;
20154;SDS011;10238;49.556;10.956;2023-03-23T01:17:34;7.22;;;4.65;;
20154;SDS011;10238;49.556;10.956;2023-03-23T01:20:21;6.80;;;5.07;;
20154;SDS011;10238;49.556;10.956;2023-03-23T01:23:09;6.53;;;4.47;;
20154;SDS011;10238;49.556;10.956;2023-03-23T01:25:55;5.40;;;4.32;;
20154;SDS011;10238;49.556;10.956;2023-03-23T01:28:42;7.43;;;4.25;;
20154;SDS011;10238;49.556;10.956;2023-03-23T01:31:30;6.28;;;5.45;;
20154;SDS011;10238;49.556;10.956;2023-03-23T01:34:18;6.57;;;4.50;;
20154;SDS011;10238;49.556;10.956;2023-03-23T01:37:04;5.75;;;5.13;;
20154;SDS011;10238;49.556;10.956;2023-03-23T01:39:52;5.45;;;4.30;;
20154;SDS011;10238;49.556;10.956;2023-03-23T01:42:39;6.57;;;3.90;;
20154;SDS011;10238;49.556;10.956;2023-03-23T01:45:31;4.25;;;3.90;;
20154;SDS011;10238;49.556;10.956;2023-03-23T01:48:20;5.82;;;3.75;;
20154;SDS011;10238;49.556;10.956;2023-03-23T01:51:12;5.90;;;3.88;;
20154;SDS011;10238;49.556;10.956;2023-03-23T01:54:02;4.40;;;4.00;;
20154;SDS011;10238;49.556;10.956;2023-03-23T01:56:54;4.70;;;3.55;;
20154;SDS011;10238;49.556;10.956;2023-03-23T01:59:45;4.60;;;3.60;;
20154;SDS011;10238;49.556;10.956;2023-03-23T02:02:35;5.25;;;3.63;;
20154;SDS011;10238;49.556;10.956;2023-03-23T02:05:24;4.55;;;3.45;;
20154;SDS011;10238;49.556;10.956;2023-03-23T02:08:17;7.15;;;4.10;;
20154;SDS011;10238;49.556;10.956;2023-03-23T02:11:10;6.22;;;4.57;;
20154;SDS011;10238;49.556;10.956;2023-03-23T02:13:59;6.00;;;4.28;;
20154;SDS011;10238;49.556;10.956;2023-03-23T02:16:48;5.95;;;4.40;;
20154;SDS011;10238;49.556;10.956;2023-03-23T02:19:55;4.68;;;3.55;;
20154;SDS011;10238;49.556;10.956;2023-03-23T02:23:05;6.60;;;4.28;;
20154;SDS011;10238;49.556;10.956;2023-03-23T02:26:17;4.97;;;3.92;;
20154;SDS011;10238;49.556;10.956;2023-03-23T02:29:20;4.45;;;3.55;;
20154;SDS011;10238;49.556;10.956;2023-03-23T02:32:41;3.92;;;3.40;;
20154;SDS011;10238;49.556;10.956;2023-03-23T02:35:54;4.65;;;3.33;;
20154;SDS011;10238;49.556;10.956;2023-03-23T02:38:47;5.30;;;3.70;;
20154;SDS011;10238;49.556;10.956;2023-03-23T02:41:39;3.92;;;3.53;;
20154;SDS011;10238;49.556;10.956;2023-03-23T02:44:30;4.40;;;3.60;;
20154;SDS011;10238;49.556;10.956;2023-03-23T02:47:20;5.10;;;3.70;;
20154;SDS011;10238;49.556;10.956;2023-03-23T02:50:12;3.97;;;3.55;;
20154;SDS011;10238;49.556;10.956;2023-03-23T02:53:02;5.75;;;4.05;;
20154;SDS011;10238;49.556;10.956;2023-03-23T02:55:51;4.95;;;3.70;;
20154;SDS011;10238;49.556;10.956;2023-03-23T02:58:42;5.18;;;3.42;;
20154;SDS011;10238;49.556;10.956;2023-03-23T03:01:48;4.90;;;3.10;;
20154;SDS011;10238;49.556;10.956;2023-03-23T03:04:44;5.45;;;3.58;;
20154;SDS011;10238;49.556;10.956;2023-03-23T03:07:41;3.80;;;3.40;;
20154;SDS011;10238;49.556;10.956;2023-03-23T03:10:36;3.58;;;3.08;;
20154;SDS011;10238;49.556;10.956;2023-03-23T03:13:34;5.32;;;3.63;;
20154;SDS011;10238;49.556;10.956;2023-03-23T03:16:32;3.70;;;3.28;;
20154;SDS011;10238;49.556;10.956;2023-03-23T03:19:23;6.28;;;3.30;;
20154;SDS011;10238;49.556;10.956;2023-03-23T03:22:13;9.43;;;3.60;;
20154;SDS011;10238;49.556;10.956;2023-03-23T03:25:01;4.63;;;2.83;;
20154;SDS011;10238;49.556;10.956;2023-03-23T03:27:50;4.63;;;3.20;;
20154;SDS011;10238;49.556;10.956;2023-03-23T03:30:37;2.80;;;2.60;;
20154;SDS011;10238;49.556;10.956;2023-03-23T03:33:28;3.97;;;2.80;;
20154;SDS011;10238;49.556;10.956;2023-03-23T03:36:18;3.85;;;2.75;;
20154;SDS011;10238;49.556;10.956;2023-03-23T03:39:08;3.78;;;3.03;;
20154;SDS011;10238;49.556;10.956;2023-03-23T03:41:56;3.05;;;2.78;;
20154;SDS011;10238;49.556;10.956;2023-03-23T03:44:44;2.50;;;2.30;;
20154;SDS011;10238;49.556;10.956;2023-03-23T03:47:31;3.83;;;2.97;;
20154;SDS011;10238;49.556;10.956;2023-03-23T03:50:18;3.15;;;2.95;;
20154;SDS011;10238;49.556;10.956;2023-03-23T03:53:05;3.50;;;2.70;;
20154;SDS011;10238;49.556;10.956;2023-03-23T03:55:52;4.13;;;2.80;;
20154;SDS011;10238;49.556;10.956;2023-03-23T03:58:41;4.03;;;2.55;;
20154;SDS011;10238;49.556;10.956;2023-03-23T04:01:29;2.88;;;2.63;;
20154;SDS011;10238;49.556;10.956;2023-03-23T04:04:16;2.88;;;2.40;;
20154;SDS011;10238;49.556;10.956;2023-03-23T04:07:03;4.72;;;2.70;;
20154;SDS011;10238;49.556;10.956;2023-03-23T04:09:49;6.63;;;6.13;;
20154;SDS011;10238;49.556;10.956;2023-03-23T04:12:36;5.80;;;2.92;;
20154;SDS011;10238;49.556;10.956;2023-03-23T04:15:23;5.72;;;2.80;;
20154;SDS011;10238;49.556;10.956;2023-03-23T04:18:12;2.75;;;2.53;;
20154;SDS011;10238;49.556;10.956;2023-03-23T04:21:01;3.10;;;2.80;;
20154;SDS011;10238;49.556;10.956;2023-03-23T04:23:51;3.78;;;2.70;;
20154;SDS011;10238;49.556;10.956;2023-03-23T04:26:38;3.53;;;3.22;;
20154;SDS011;10238;49.556;10.956;2023-03-23T04:29:26;4.05;;;2.90;;
20154;SDS011;10238;49.556;10.956;2023-03-23T04:32:13;4.18;;;3.17;;
20154;SDS011;10238;49.556;10.956;2023-03-23T04:35:03;2.88;;;2.67;;
20154;SDS011;10238;49.556;10.956;2023-03-23T04:37:52;4.07;;;2.80;;
20154;SDS011;10238;49.556;10.956;2023-03-23T04:40:39;3.28;;;2.70;;
20154;SDS011;10238;49.556;10.956;2023-03-23T04:43:28;4.53;;;3.20;;
20154;SDS011;10238;49.556;10.956;2023-03-23T04:46:17;3.28;;;3.05;;
20154;SDS011;10238;49.556;10.956;2023-03-23T04:49:05;3.35;;;3.05;;
20154;SDS011;10238;49.556;10.956;2023-03-23T04:51:55;5.60;;;3.30;;
20154;SDS011;10238;49.556;10.956;2023-03-23T04:54:41;5.63;;;2.95;;
20154;SDS011;10238;49.556;10.956;2023-03-23T04:57:29;3.25;;;2.92;;
20154;SDS011;10238;49.556;10.956;2023-03-23T05:00:17;3.45;;;3.15;;
20154;SDS011;10238;49.556;10.956;2023-03-23T05:03:05;3.90;;;2.80;;
20154;SDS011;10238;49.556;10.956;2023-03-23T05:05:52;3.22;;;3.03;;
20154;SDS011;10238;49.556;10.956;2023-03-23T05:08:40;3.90;;;3.15;;
20154;SDS011;10238;49.556;10.956;2023-03-23T05:11:27;3.53;;;3.00;;
20154;SDS011;10238;49.556;10.956;2023-03-23T05:14:13;4.60;;;4.20;;
20154;SDS011;10238;49.556;10.956;2023-03-23T05:17:01;6.63;;;4.18;;
20154;SDS011;10238;49.556;10.956;2023-03-23T05:19:48;3.78;;;3.40;;
20154;SDS011;10238;49.556;10.956;2023-03-23T05:22:36;3.42;;;3.17;;
20154;SDS011;10238;49.556;10.956;2023-03-23T05:25:24;3.90;;;3.40;;
20154;SDS011;10238;49.556;10.956;2023-03-23T05:28:11;3.83;;;3.42;;
20154;SDS011;10238;49.556;10.956;2023-03-23T05:30:58;5.15;;;4.75;;
20154;SDS011;10238;49.556;10.956;2023-03-23T05:33:44;4.10;;;3.70;;
20154;SDS011;10238;49.556;10.956;2023-03-23T05:36:31;4.65;;;4.25;;
20154;SDS011;10238;49.556;10.956;2023-03-23T05:39:18;4.00;;;3.60;;
20154;SDS011;10238;49.556;10.956;2023-03-23T05:42:07;3.42;;;2.83;;
20154;SDS011;10238;49.556;10.956;2023-03-23T05:44:53;4.00;;;3.45;;
20154;SDS011;10238;49.556;10.956;2023-03-23T05:47:40;3.58;;;3.28;;
20154;SDS011;10238;49.556;10.956;2023-03-23T05:50:27;3.40;;;3.10;;
20154;SDS011;10238;49.556;10.956;2023-03-23T05:53:14;4.75;;;3.80;;
20154;SDS011;10238;49.556;10.956;2023-03-23T05:56:00;4.63;;;3.35;;
20154;SDS011;10238;49.556;10.956;2023-03-23T05:58:49;3.95;;;3.65;;
20154;SDS011;10238;49.556;10.956;2023-03-23T06:01:36;3.63;;;3.33;;
20154;SDS011;10238;49.556;10.956;2023-03-23T06:04:24;3.45;;;2.85;;
20154;SDS011;10238;49.556;10.956;2023-03-23T06:07:12;4.00;;;3.28;;
20154;SDS011;10238;49.556;10.956;2023-03-23T06:09:59;3.88;;;3.17;;
20154;SDS011;10238;49.556;10.956;2023-03-23T06:12:46;3.83;;;3.38;;
20154;SDS011;10238;49.556;10.956;2023-03-23T06:15:34;3.45;;;3.15;;
20154;SDS011;10238;49.556;10.956;2023-03-23T06:18:21;5.20;;;3.22;;
20154;SDS011;10238;49.556;10.956;2023-03-23T06:21:08;4.60;;;3.10;;
20154;SDS011;10238;49.556;10.956;2023-03-23T06:23:56;3.67;;;3.38;;
20154;SDS011;10238;49.556;10.956;2023-03-23T06:26:43;4.38;;;4.00;;
20154;SDS011;10238;49.556;10.956;2023-03-23T06:29:30;4.50;;;3.47;;
20154;SDS011;10238;49.556;10.956;2023-03-23T06:32:18;4.65;;;3.90;;
20154;SDS011;10238;49.556;10.956;2023-03-23T06:35:06;5.05;;;3.00;;
20154;SDS011;10238;49.556;10.956;2023-03-23T06:37:55;3.85;;;3.55;;
20154;SDS011;10238;49.556;10.956;2023-03-23T06:40:45;4.13;;;3.53;;
20154;SDS011;10238;49.556;10.956;2023-03-23T06:43:33;3.85;;;3.53;;
20154;SDS011;10238;49.556;10.956;2023-03-23T06:46:21;3.33;;;3.03;;
20154;SDS011;10238;49.556;10.956;2023-03-23T06:49:09;4.05;;;3.45;;
20154;SDS011;10238;49.556;10.956;2023-03-23T06:51:56;5.05;;;4.60;;
20154;SDS011;10238;49.556;10.956;2023-03-23T06:54:44;4.95;;;4.47;;
20154;SDS011;10238;49.556;10.956;2023-03-23T06:57:31;4.25;;;4.05;;
20154;SDS011;10238;49.556;10.956;2023-03-23T07:00:18;4.13;;;3.83;;
20154;SDS011;10238;49.556;10.956;2023-03-23T07:03:05;4.60;;;3.97;;
20154;SDS011;10238;49.556;10.956;2023-03-23T07:05:54;3.33;;;3.03;;
20154;SDS011;10238;49.556;10.956;2023-03-23T07:08:41;4.10;;;3.33;;
20154;SDS011;10238;49.556;10.956;2023-03-23T07:11:27;6.30;;;5.85;;
20154;SDS011;10238;49.556;10.956;2023-03-23T07:14:14;3.95;;;3.00;;
20154;SDS011;10238;49.556;10.956;2023-03-23T07:17:02;5.95;;;3.60;;
20154;SDS011;10238;49.556;10.956;2023-03-23T07:19:50;4.18;;;3.67;;
20154;SDS011;10238;49.556;10.956;2023-03-23T07:22:38;6.28;;;5.88;;
20154;SDS011;10238;49.556;10.956;2023-03-23T07:25:25;4.63;;;4.32;;
20154;SDS011;10238;49.556;10.956;2023-03-23T07:28:12;4.03;;;3.72;;
20154;SDS011;10238;49.556;10.956;2023-03-23T07:30:58;4.70;;;4.28;;
20154;SDS011;10238;49.556;10.956;2023-03-23T07:33:45;4.38;;;4.07;;
20154;SDS011;10238;49.556;10.956;2023-03-23T07:36:31;3.75;;;3.38;;
20154;SDS011;10238;49.556;10.956;2023-03-23T07:39:23;4.28;;;3.95;;
20154;SDS011;10238;49.556;10.956;2023-03-23T07:42:10;4.47;;;4.03;;
20154;SDS011;10238;49.556;10.956;2023-03-23T07:44:56;5.30;;;3.60;;
20154;SDS011;10238;49.556;10.956;2023-03-23T07:47:43;3.47;;;3.17;;
20154;SDS011;10238;49.556;10.956;2023-03-23T07:50:30;3.78;;;3.47;;
20154;SDS011;10238;49.556;10.956;2023-03-23T07:53:19;5.57;;;5.18;;
20154;SDS011;10238;49.556;10.956;2023-03-23T07:56:09;7.50;;;3.53;;
20154;SDS011;10238;49.556;10.956;2023-03-23T07:58:56;4.78;;;3.75;;
20154;SDS011;10238;49.556;10.956;2023-03-23T08:01:49;12.20;;;11.50;;
20154;SDS011;10238;49.556;10.956;2023-03-23T08:04:38;9.40;;;8.65;;
20154;SDS011;10238;49.556;10.956;2023-03-23T08:07:38;9.30;;;8.32;;
20154;SDS011;10238;49.556;10.956;2023-03-23T08:10:25;7.22;;;6.68;;
20154;SDS011;10238;49.556;10.956;2023-03-23T08:13:13;6.50;;;6.00;;
20154;SDS011;10238;49.556;10.956;2023-03-23T08:16:06;5.80;;;5.40;;
20154;SDS011;10238;49.556;10.956;2023-03-23T08:18:54;6.93;;;6.43;;
20154;SDS011;10238;49.556;10.956;2023-03-23T08:21:41;7.40;;;6.90;;
20154;SDS011;10238;49.556;10.956;2023-03-23T08:24:36;8.45;;;7.95;;
20154;SDS011;10238;49.556;10.956;2023-03-23T08:27:23;9.05;;;8.45;;
20154;SDS011;10238;49.556;10.956;2023-03-23T08:30:28;7.80;;;7.28;;
20154;SDS011;10238;49.556;10.956;2023-03-23T08:33:17;7.78;;;6.45;;
20154;SDS011;10238;49.556;10.956;2023-03-23T08:36:06;5.93;;;5.45;;
20154;SDS011;10238;49.556;10.956;2023-03-23T08:38:53;4.53;;;3.95;;
20154;SDS011;10238;49.556;10.956;2023-03-23T08:41:40;6.88;;;6.22;;
20154;SDS011;10238;49.556;10.956;2023-03-23T08:44:27;6.68;;;6.18;;
20154;SDS011;10238;49.556;10.956;2023-03-23T08:47:17;9.55;;;7.75;;
20154;SDS011;10238;49.556;10.956;2023-03-23T08:50:05;7.05;;;6.45;;
20154;SDS011;10238;49.556;10.956;2023-03-23T08:52:54;8.30;;;7.80;;
20154;SDS011;10238;49.556;10.956;2023-03-23T08:55:40;6.82;;;6.30;;
20154;SDS011;10238;49.556;10.956;2023-03-23T08:58:29;7.22;;;6.53;;
20154;SDS011;10238;49.556;10.956;2023-03-23T09:01:16;6.95;;;6.40;;
20154;SDS011;10238;49.556;10.956;2023-03-23T09:04:04;6.55;;;6.05;;
20154;SDS011;10238;49.556;10.956;2023-03-23T09:06:51;8.68;;;7.88;;
20154;SDS011;10238;49.556;10.956;2023-03-23T09:09:38;7.35;;;6.75;;
20154;SDS011;10238;49.556;10.956;2023-03-23T09:12:24;8.38;;;6.55;;
20154;SDS011;10238;49.556;10.956;2023-03-23T09:15:13;9.73;;;9.02;;
20154;SDS011;10238;49.556;10.956;2023-03-23T09:18:02;9.05;;;8.35;;
20154;SDS011;10238;49.556;10.956;2023-03-23T09:20:50;12.57;;;11.77;;
20154;SDS011;10238;49.556;10.956;2023-03-23T09:23:38;9.95;;;8.93;;
20154;SDS011;10238;49.556;10.956;2023-03-23T09:26:28;10.60;;;9.75;;
20154;SDS011;10238;49.556;10.956;2023-03-23T09:29:15;8.60;;;8.07;;
20154;SDS011;10238;49.556;10.956;2023-03-23T09:32:02;15.65;;;14.85;;
20154;SDS011;10238;49.556;10.956;2023-03-23T09:34:50;5.43;;;5.03;;
20154;SDS011;10238;49.556;10.956;2023-03-23T09:37:40;3.17;;;2.92;;
20154;SDS011;10238;49.556;10.956;2023-03-23T09:40:29;6.68;;;6.10;;
20154;SDS011;10238;49.556;10.956;2023-03-23T09:43:29;4.18;;;3.38;;
20154;SDS011;10238;49.556;10.956;2023-03-23T09:46:39;3.80;;;3.45;;
20154;SDS011;10238;49.556;10.956;2023-03-23T09:49:37;5.15;;;3.10;;
20154;SDS011;10238;49.556;10.956;2023-03-23T09:52:30;4.57;;;4.15;;
20154;SDS011;10238;49.556;10.956;2023-03-23T09:55:24;4.45;;;4.15;;
20154;SDS011;10238;49.556;10.956;2023-03-23T09:58:15;4.25;;;3.85;;
20154;SDS011;10238;49.556;10.956;2023-03-23T10:03:55;3.20;;;2.92;;
20154;SDS011;10238;49.556;10.956;2023-03-23T10:06:49;3.30;;;3.03;;
20154;SDS011;10238;49.556;10.956;2023-03-23T10:09:36;4.13;;;2.90;;
20154;SDS011;10238;49.556;10.956;2023-03-23T10:12:27;5.72;;;3.05;;
20154;SDS011;10238;49.556;10.956;2023-03-23T10:15:20;5.22;;;3.80;;
20154;SDS011;10238;49.556;10.956;2023-03-23T10:18:13;4.88;;;4.47;;
20154;SDS011;10238;49.556;10.956;2023-03-23T10:21:03;4.90;;;4.50;;
20154;SDS011;10238;49.556;10.956;2023-03-23T10:23:54;3.90;;;3.60;;
20154;SDS011;10238;49.556;10.956;2023-03-23T10:26:47;6.90;;;3.45;;
20154;SDS011;10238;49.556;10.956;2023-03-23T10:29:43;3.80;;;3.10;;
20154;SDS011;10238;49.556;10.956;2023-03-23T10:32:38;3.33;;;3.08;;
20154;SDS011;10238;49.556;10.956;2023-03-23T10:35:32;4.05;;;3.17;;
20154;SDS011;10238;49.556;10.956;2023-03-23T10:38:23;3.42;;;2.90;;
20154;SDS011;10238;49.556;10.956;2023-03-23T10:41:15;4.88;;;3.30;;
20154;SDS011;10238;49.556;10.956;2023-03-23T10:44:08;3.72;;;3.42;;
20154;SDS011;10238;49.556;10.956;2023-03-23T10:47:04;4.00;;;3.70;;
20154;SDS011;10238;49.556;10.956;2023-03-23T10:49:53;3.95;;;3.65;;
20154;SDS011;10238;49.556;10.956;2023-03-23T10:52:43;4.30;;;3.90;;
20154;SDS011;10238;49.556;10.956;2023-03-23T10:55:37;4.82;;;3.88;;
20154;SDS011;10238;49.556;10.956;2023-03-23T10:58:26;5.30;;;3.72;;
20154;SDS011;10238;49.556;10.956;2023-03-23T11:01:17;4.18;;;3.88;;
20154;SDS011;10238;49.556;10.956;2023-03-23T11:04:11;4.18;;;3.88;;
20154;SDS011;10238;49.556;10.956;2023-03-23T11:07:01;4.10;;;3.90;;
20154;SDS011;10238;49.556;10.956;2023-03-23T11:09:51;4.60;;;3.83;;
20154;SDS011;10238;49.556;10.956;2023-03-23T11:12:39;4.78;;;4.10;;
20154;SDS011;10238;49.556;10.956;2023-03-23T11:15:32;4.03;;;3.72;;
20154;SDS011;10238;49.556;10.956;2023-03-23T11:18:21;4.68;;;4.28;;
20154;SDS011;10238;49.556;10.956;2023-03-23T11:21:11;3.83;;;3.53;;
20154;SDS011;10238;49.556;10.956;2023-03-23T11:23:59;3.60;;;3.30;;
20154;SDS011;10238;49.556;10.956;2023-03-23T11:26:47;3.75;;;3.55;;
20154;SDS011;10238;49.556;10.956;2023-03-23T11:29:35;3.70;;;3.40;;
20154;SDS011;10238;49.556;10.956;2023-03-23T11:32:36;4.07;;;3.78;;
20154;SDS011;10238;49.556;10.956;2023-03-23T11:35:28;3.88;;;3.58;;
20154;SDS011;10238;49.556;10.956;2023-03-23T11:38:18;4.07;;;3.88;;
20154;SDS011;10238;49.556;10.956;2023-03-23T11:41:08;4.55;;;3.70;;
20154;SDS011;10238;49.556;10.956;2023-03-23T11:43:57;4.18;;;3.78;;
20154;SDS011;10238;49.556;10.956;2023-03-23T11:46:57;3.85;;;3.58;;
20154;SDS011;10238;49.556;10.956;2023-03-23T11:49:50;3.63;;;3.33;;
20154;SDS011;10238;49.556;10.956;2023-03-23T11:52:44;3.78;;;3.58;;
20154;SDS011;10238;49.556;10.956;2023-03-23T11:55:50;2.53;;;2.33;;
20154;SDS011;10238;49.556;10.956;2023-03-23T11:58:42;5.13;;;3.75;;
20154;SDS011;10238;49.556;10.956;2023-03-23T12:01:34;4.07;;;3.70;;
20154;SDS011;10238;49.556;10.956;2023-03-23T12:04:40;3.65;;;3.25;;
20154;SDS011;10238;49.556;10.956;2023-03-23T12:07:46;4.82;;;4.53;;
20154;SDS011;10238;49.556;10.956;2023-03-23T12:10:43;5.15;;;4.78;;
20154;SDS011;10238;49.556;10.956;2023-03-23T12:13:40;6.22;;;5.93;;
20154;SDS011;10238;49.556;10.956;2023-03-23T12:16:41;6.32;;;6.03;;
20154;SDS011;10238;49.556;10.956;2023-03-23T12:19:45;4.45;;;3.33;;
20154;SDS011;10238;49.556;10.956;2023-03-23T12:22:44;3.60;;;3.05;;
20154;SDS011;10238;49.556;10.956;2023-03-23T12:25:51;2.75;;;2.55;;
20154;SDS011;10238;49.556;10.956;2023-03-23T12:32:25;9.90;;;4.18;;
20154;SDS011;10238;49.556;10.956;2023-03-23T12:35:25;2.95;;;2.75;;
20154;SDS011;10238;49.556;10.956;2023-03-23T12:38:23;3.75;;;2.70;;
20154;SDS011;10238;49.556;10.956;2023-03-23T12:41:27;3.20;;;2.60;;
20154;SDS011;10238;49.556;10.956;2023-03-23T12:44:23;2.28;;;2.17;;
20154;SDS011;10238;49.556;10.956;2023-03-23T12:47:18;3.72;;;2.45;;
20154;SDS011;10238;49.556;10.956;2023-03-23T12:50:18;2.53;;;2.33;;
20154;SDS011;10238;49.556;10.956;2023-03-23T12:53:13;2.42;;;2.30;;
20154;SDS011;10238;49.556;10.956;2023-03-23T12:56:10;2.60;;;2.35;;
20154;SDS011;10238;49.556;10.956;2023-03-23T12:59:06;2.58;;;2.30;;
20154;SDS011;10238;49.556;10.956;2023-03-23T13:02:01;3.38;;;3.10;;
20154;SDS011;10238;49.556;10.956;2023-03-23T13:04:59;3.45;;;3.25;;
20154;SDS011;10238;49.556;10.956;2023-03-23T13:07:50;3.95;;;3.50;;
20154;SDS011;10238;49.556;10.956;2023-03-23T13:10:42;3.93;;;3.70;;
20154;SDS011;10238;49.556;10.956;2023-03-23T13:13:40;3.35;;;3.15;;
20154;SDS011;10238;49.556;10.956;2023-03-23T13:16:35;4.35;;;4.05;;
20154;SDS011;10238;49.556;10.956;2023-03-23T13:19:29;5.32;;;5.03;;
20154;SDS011;10238;49.556;10.956;2023-03-23T13:22:25;5.57;;;5.28;;
20154;SDS011;10238;49.556;10.956;2023-03-23T13:25:18;6.18;;;5.68;;
20154;SDS011;10238;49.556;10.956;2023-03-23T13:28:13;5.78;;;5.50;;
20154;SDS011;10238;49.556;10.956;2023-03-23T13:31:11;6.00;;;5.15;;
20154;SDS011;10238;49.556;10.956;2023-03-23T13:34:02;5.50;;;5.20;;
20154;SDS011;10238;49.556;10.956;2023-03-23T13:36:54;4.90;;;4.70;;
20154;SDS011;10238;49.556;10.956;2023-03-23T13:39:48;4.20;;;4.00;;
20154;SDS011;10238;49.556;10.956;2023-03-23T13:42:47;5.50;;;5.20;;
20154;SDS011;10238;49.556;10.956;2023-03-23T13:45:36;3.20;;;3.00;;
20154;SDS011;10238;49.556;10.956;2023-03-23T13:48:38;4.18;;;3.97;;
20154;SDS011;10238;49.556;10.956;2023-03-23T13:51:34;4.10;;;3.90;;
20154;SDS011;10238;49.556;10.956;2023-03-23T13:54:24;8.25;;;7.85;;
20154;SDS011;10238;49.556;10.956;2023-03-23T14:00:33;2.67;;;2.47;;
20154;SDS011;10238;49.556;10.956;2023-03-23T14:03:33;2.97;;;2.67;;
20154;SDS011;10238;49.556;10.956;2023-03-23T14:06:22;6.13;;;5.72;;
20154;SDS011;10238;49.556;10.956;2023-03-23T14:09:12;2.83;;;1.98;;
20154;SDS011;10238;49.556;10.956;2023-03-23T14:12:03;5.18;;;2.25;;
20154;SDS011;10238;49.556;10.956;2023-03-23T14:14:55;3.70;;;2.47;;
20154;SDS011;10238;49.556;10.956;2023-03-23T14:17:48;3.67;;;3.38;;
20154;SDS011;10238;49.556;10.956;2023-03-23T14:20:36;4.15;;;3.70;;
20154;SDS011;10238;49.556;10.956;2023-03-23T14:23:24;4.35;;;4.05;;
20154;SDS011;10238;49.556;10.956;2023-03-23T14:26:19;4.15;;;3.90;;
20154;SDS011;10238;49.556;10.956;2023-03-23T14:29:09;3.92;;;3.25;;
20154;SDS011;10238;49.556;10.956;2023-03-23T14:31:58;4.65;;;2.58;;
20154;SDS011;10238;49.556;10.956;2023-03-23T14:34:46;3.25;;;2.97;;
20154;SDS011;10238;49.556;10.956;2023-03-23T14:37:36;4.32;;;4.03;;
20154;SDS011;10238;49.556;10.956;2023-03-23T14:40:25;5.90;;;5.28;;
20154;SDS011;10238;49.556;10.956;2023-03-23T14:43:15;3.95;;;3.55;;
20154;SDS011;10238;49.556;10.956;2023-03-23T14:46:06;3.78;;;3.42;;
20154;SDS011;10238;49.556;10.956;2023-03-23T14:48:55;4.05;;;3.65;;
20154;SDS011;10238;49.556;10.956;2023-03-23T14:51:49;8.57;;;4.82;;
20154;SDS011;10238;49.556;10.956;2023-03-23T14:54:37;4.50;;;4.20;;
20154;SDS011;10238;49.556;10.956;2023-03-23T14:57:27;3.78;;;3.38;;
20154;SDS011;10238;49.556;10.956;2023-03-23T15:00:17;5.45;;;4.95;;
20154;SDS011;10238;49.556;10.956;2023-03-23T15:03:10;3.50;;;3.20;;
20154;SDS011;10238;49.556;10.956;2023-03-23T15:06:00;4.15;;;3.85;;
20154;SDS011;10238;49.556;10.956;2023-03-23T15:08:53;5.93;;;5.43;;
20154;SDS011;10238;49.556;10.956;2023-03-23T15:11:50;5.13;;;4.73;;
20154;SDS011;10238;49.556;10.956;2023-03-23T15:14:43;6.32;;;5.82;;
20154;SDS011;10238;49.556;10.956;2023-03-23T15:17:35;5.60;;;4.75;;
20154;SDS011;10238;49.556;10.956;2023-03-23T15:20:24;5.13;;;3.80;;
20154;SDS011;10238;49.556;10.956;2023-03-23T15:23:14;3.97;;;3.67;;
20154;SDS011;10238;49.556;10.956;2023-03-23T15:26:05;4.82;;;2.80;;
20154;SDS011;10238;49.556;10.956;2023-03-23T15:29:10;3.17;;;2.60;;
20154;SDS011;10238;49.556;10.956;2023-03-23T15:32:00;4.65;;;2.60;;
20154;SDS011;10238;49.556;10.956;2023-03-23T15:34:49;2.60;;;2.40;;
20154;SDS011;10238;49.556;10.956;2023-03-23T15:37:38;3.63;;;3.33;;
20154;SDS011;10238;49.556;10.956;2023-03-23T15:40:32;4.22;;;2.97;;
20154;SDS011;10238;49.556;10.956;2023-03-23T15:43:21;6.55;;;6.15;;
20154;SDS011;10238;49.556;10.956;2023-03-23T15:46:19;9.25;;;8.57;;
20154;SDS011;10238;49.556;10.956;2023-03-23T15:49:08;11.20;;;10.50;;
20154;SDS011;10238;49.556;10.956;2023-03-23T15:51:59;10.15;;;9.55;;
20154;SDS011;10238;49.556;10.956;2023-03-23T15:54:46;7.40;;;6.45;;
20154;SDS011;10238;49.556;10.956;2023-03-23T15:57:34;6.50;;;6.03;;
20154;SDS011;10238;49.556;10.956;2023-03-23T16:00:21;5.72;;;5.28;;
20154;SDS011;10238;49.556;10.956;2023-03-23T16:03:11;3.83;;;3.40;;
20154;SDS011;10238;49.556;10.956;2023-03-23T16:06:05;9.75;;;9.23;;
20154;SDS011;10238;49.556;10.956;2023-03-23T16:09:12;4.07;;;3.00;;
20154;SDS011;10238;49.556;10.956;2023-03-23T16:12:01;3.13;;;2.47;;
20154;SDS011;10238;49.556;10.956;2023-03-23T16:14:49;2.55;;;2.35;;
20154;SDS011;10238;49.556;10.956;2023-03-23T16:17:38;2.60;;;2.40;;
20154;SDS011;10238;49.556;10.956;2023-03-23T16:20:27;3.05;;;2.78;;
20154;SDS011;10238;49.556;10.956;2023-03-23T16:23:17;3.00;;;2.70;;
20154;SDS011;10238;49.556;10.956;2023-03-23T16:26:07;3.67;;;3.38;;
20154;SDS011;10238;49.556;10.956;2023-03-23T16:28:55;11.27;;;7.63;;
20154;SDS011;10238;49.556;10.956;2023-03-23T16:31:57;3.53;;;3.23;;
20154;SDS011;10238;49.556;10.956;2023-03-23T16:34:45;4.88;;;4.47;;
20154;SDS011;10238;49.556;10.956;2023-03-23T16:37:37;5.43;;;5.03;;
20154;SDS011;10238;49.556;10.956;2023-03-23T16:40:30;5.53;;;5.07;;
20154;SDS011;10238;49.556;10.956;2023-03-23T16:43:20;5.57;;;5.07;;
20154;SDS011;10238;49.556;10.956;2023-03-23T16:46:08;6.38;;;5.97;;
20154;SDS011;10238;49.556;10.956;2023-03-23T16:48:58;6.55;;;6.15;;
20154;SDS011;10238;49.556;10.956;2023-03-23T16:51:47;7.45;;;6.95;;
20154;SDS011;10238;49.556;10.956;2023-03-23T16:54:35;7.90;;;7.40;;
20154;SDS011;10238;49.556;10.956;2023-03-23T16:57:23;10.23;;;9.52;;
20154;SDS011;10238;49.556;10.956;2023-03-23T17:00:14;10.10;;;9.50;;
20154;SDS011;10238;49.556;10.956;2023-03-23T17:03:04;10.45;;;9.75;;